Time;durP1;ratioP1;P1;durP2;ratioP2;P2;SDS_P1;SDS_P2;PMS_P1;PMS_P2;Temp;Humidity;BMP_temperature;BMP_pressure;BME280_temperature;BME280_humidity;BME280_pressure;Samples;Min_cycle;Max_cycle;Signal;HPM_P1;HPM_P2
2020/12/27 00:02:12;;;;;;;7.10;4.07;;;3.60;75.90;;;;;;5024528;28;20033;-61
2020/12/27 00:04:38;;;;;;;7.90;3.88;;;3.60;75.00;;;;;;5026358;28;20085;-60
2020/12/27 00:07:07;;;;;;;7.32;4.82;;;3.60;75.50;;;;;;5004162;28;20096;-61
2020/12/27 00:09:37;;;;;;;6.32;4.45;;;3.70;75.40;;;;;;5040318;28;20781;-61
2020/12/27 00:12:03;;;;;;;6.47;4.20;;;3.60;76.00;;;;;;5031024;28;20041;-61
2020/12/27 00:14:29;;;;;;;10.30;4.35;;;3.50;76.50;;;;;;5032639;28;20040;-61
2020/12/27 00:16:55;;;;;;;5.95;3.80;;;3.50;76.00;;;;;;5030464;28;20514;-60
2020/12/27 00:19:21;;;;;;;7.38;4.80;;;3.50;76.40;;;;;;5024632;28;20029;-61
2020/12/27 00:21:46;;;;;;;8.30;4.38;;;3.50;76.60;;;;;;5025328;28;20183;-60
2020/12/27 00:24:12;;;;;;;6.00;4.03;;;3.50;76.70;;;;;;5024065;28;20048;-61
2020/12/27 00:26:38;;;;;;;8.10;4.05;;;3.50;76.20;;;;;;5039103;28;20036;-60
2020/12/27 00:29:04;;;;;;;6.68;4.22;;;3.50;75.70;;;;;;5029535;28;20033;-60
2020/12/27 00:31:30;;;;;;;8.35;4.47;;;3.50;76.20;;;;;;5024968;28;20036;-60
2020/12/27 00:33:56;;;;;;;7.88;4.32;;;3.50;75.40;;;;;;5023975;28;20029;-60
2020/12/27 00:36:22;;;;;;;7.63;4.07;;;3.50;74.90;;;;;;5024166;28;20861;-61
2020/12/27 00:38:48;;;;;;;6.60;4.30;;;3.50;75.30;;;;;;5031184;28;20051;-61
2020/12/27 00:41:24;;;;;;;8.75;4.40;;;3.50;75.20;;;;;;5023854;28;20037;-60
2020/12/27 00:43:50;;;;;;;;;;;3.50;75.60;;;;;;5028867;28;20094;-61
2020/12/27 00:46:17;;;;;;;7.38;3.97;;;3.60;75.40;;;;;;5029194;28;19913;-60
2020/12/27 00:48:42;;;;;;;8.82;4.03;;;3.50;75.30;;;;;;5025641;28;20116;-60
2020/12/27 00:51:08;;;;;;;7.85;4.85;;;3.40;75.50;;;;;;5023557;28;20039;-60
2020/12/27 00:53:34;;;;;;;9.13;4.28;;;3.40;76.40;;;;;;5029144;28;20485;-60
2020/12/27 00:55:59;;;;;;;6.57;4.40;;;3.50;76.40;;;;;;5005684;28;20040;-60
2020/12/27 00:58:26;;;;;;;8.18;4.35;;;3.60;75.70;;;;;;5013012;28;20156;-60
2020/12/27 01:00:51;;;;;;;9.65;5.07;;;3.60;75.80;;;;;;5023336;28;20134;-59
2020/12/27 01:03:21;;;;;;;9.20;4.97;;;3.50;75.40;;;;;;5005400;28;20064;-60
2020/12/27 01:06:12;;;;;;;8.00;5.15;;;3.50;75.60;;;;;;5016864;28;20037;-60
2020/12/27 01:08:38;;;;;;;11.55;5.85;;;3.40;76.20;;;;;;5002381;28;20029;-61
2020/12/27 01:11:05;;;;;;;8.27;5.07;;;3.30;76.60;;;;;;5006064;28;20056;-60
2020/12/27 01:13:32;;;;;;;7.32;4.88;;;3.30;76.00;;;;;;5012755;28;20041;-61
2020/12/27 01:15:58;;;;;;;9.68;4.80;;;3.40;76.20;;;;;;5000544;28;20036;-60
2020/12/27 01:18:27;;;;;;;6.38;4.35;;;3.30;76.20;;;;;;5001265;28;20021;-60
2020/12/27 01:20:55;;;;;;;7.50;4.63;;;3.40;75.80;;;;;;5001635;28;20033;-60
2020/12/27 01:23:21;;;;;;;7.57;4.50;;;3.40;76.10;;;;;;5019399;28;20037;-60
2020/12/27 01:25:47;;;;;;;7.78;4.28;;;3.40;75.60;;;;;;5025976;28;20520;-63
2020/12/27 01:28:13;;;;;;;6.53;4.28;;;3.30;75.20;;;;;;5007341;28;20037;-60
2020/12/27 01:30:41;;;;;;;8.20;4.07;;;3.30;75.60;;;;;;5009132;28;20098;-63
2020/12/27 01:33:12;;;;;;;6.15;4.20;;;3.30;75.90;;;;;;5002993;28;20444;-60
2020/12/27 01:35:52;;;;;;;6.82;4.20;;;3.30;76.10;;;;;;5008176;28;20945;-60
2020/12/27 01:38:19;;;;;;;6.72;4.00;;;3.40;75.70;;;;;;5006389;28;20682;-61
2020/12/27 01:40:45;;;;;;;6.90;4.03;;;3.40;74.80;;;;;;5014896;28;20029;-60
2020/12/27 01:43:13;;;;;;;8.60;3.95;;;3.40;74.90;;;;;;5007548;28;20022;-60
2020/12/27 01:45:39;;;;;;;8.18;4.85;;;3.40;75.20;;;;;;5005463;28;20564;-60
2020/12/27 01:48:15;;;;;;;8.00;3.72;;;3.30;75.40;;;;;;5006468;28;20150;-60
2020/12/27 01:50:46;;;;;;;6.90;4.20;;;3.30;74.80;;;;;;5022449;28;20763;-61
2020/12/27 01:53:24;;;;;;;5.88;3.83;;;3.30;75.50;;;;;;5006042;28;20120;-61
2020/12/27 01:55:50;;;;;;;6.15;3.45;;;3.40;74.10;;;;;;5015303;28;20148;-58
2020/12/27 01:58:20;;;;;;;7.60;4.32;;;3.40;74.60;;;;;;5026570;28;20024;-60
2020/12/27 02:00:59;;;;;;;5.30;3.97;;;3.40;74.20;;;;;;5006695;28;20030;-60
2020/12/27 02:03:34;;;;;;;6.03;3.72;;;3.30;74.80;;;;;;5000440;28;20037;-60
2020/12/27 02:06:08;;;;;;;8.43;4.63;;;3.30;74.90;;;;;;5008825;28;20033;-60
2020/12/27 02:08:36;;;;;;;5.25;3.63;;;3.40;74.90;;;;;;5010590;28;20570;-63
2020/12/27 02:11:13;;;;;;;6.97;4.35;;;3.30;74.50;;;;;;5005155;28;20072;-60
2020/12/27 02:13:53;;;;;;;5.60;3.92;;;3.30;74.90;;;;;;5017567;28;20036;-60
2020/12/27 02:16:25;;;;;;;8.13;4.38;;;3.40;74.80;;;;;;5013406;28;20037;-61
2020/12/27 02:19:20;;;;;;;6.32;4.05;;;3.50;74.60;;;;;;5022231;28;20091;-60
2020/12/27 02:21:49;;;;;;;6.57;3.88;;;3.50;74.40;;;;;;5001384;28;20780;-61
2020/12/27 02:24:44;;;;;;;7.15;4.22;;;3.40;74.60;;;;;;5027753;28;20048;-60
2020/12/27 02:27:14;;;;;;;6.72;4.07;;;3.40;75.20;;;;;;5002696;28;20034;-61
2020/12/27 02:29:40;;;;;;;6.50;4.18;;;3.40;75.10;;;;;;5004254;28;20040;-60
2020/12/27 02:32:08;;;;;;;6.60;4.40;;;3.40;74.90;;;;;;5006063;28;20037;-60
2020/12/27 02:34:34;;;;;;;6.50;4.32;;;3.40;75.40;;;;;;5007785;28;20040;-60
2020/12/27 02:37:00;;;;;;;6.03;4.53;;;3.40;75.20;;;;;;5003707;28;20026;-60
2020/12/27 02:39:37;;;;;;;6.68;4.38;;;3.40;75.50;;;;;;5004526;28;20033;-60
2020/12/27 02:42:03;;;;;;;7.95;4.07;;;3.40;75.00;;;;;;5005551;28;20098;-60
2020/12/27 02:47:27;;;;;;;4.53;3.60;;;3.40;75.30;;;;;;5024743;28;20432;-60
2020/12/27 02:50:18;;;;;;;7.93;3.83;;;3.40;75.20;;;;;;5007189;28;20034;-60
2020/12/27 02:52:45;;;;;;;7.25;4.30;;;3.40;74.70;;;;;;5020462;28;20451;-61
2020/12/27 02:55:11;;;;;;;6.13;3.63;;;3.40;74.00;;;;;;5017631;28;20035;-61
2020/12/27 02:57:47;;;;;;;7.35;4.38;;;3.40;74.60;;;;;;5005834;28;20710;-59
2020/12/27 03:00:13;;;;;;;7.68;4.03;;;3.40;74.70;;;;;;5009382;28;20029;-60
2020/12/27 03:03:11;;;;;;;7.38;4.03;;;3.40;74.50;;;;;;5023739;28;20829;-61
2020/12/27 03:05:42;;;;;;;5.03;3.47;;;3.40;74.80;;;;;;5012329;28;20043;-60
2020/12/27 03:08:08;;;;;;;5.65;3.50;;;3.30;74.90;;;;;;5011333;28;20069;-60
2020/12/27 03:10:59;;;;;;;4.32;3.17;;;3.20;74.90;;;;;;5006319;28;20040;-60
2020/12/27 03:13:25;;;;;;;7.20;3.25;;;3.20;74.60;;;;;;5025042;28;20033;-60
2020/12/27 03:15:51;;;;;;;4.60;2.83;;;3.20;75.10;;;;;;5003477;28;20026;-60
2020/12/27 03:18:37;;;;;;;5.50;2.83;;;3.00;75.40;;;;;;5026887;28;20037;-60
2020/12/27 03:21:15;;;;;;;4.90;3.03;;;3.00;75.40;;;;;;5034756;28;20029;-63
2020/12/27 03:23:41;;;;;;;5.45;2.75;;;3.00;74.40;;;;;;5040020;28;20102;-60
2020/12/27 03:26:13;;;;;;;6.30;3.00;;;3.10;75.00;;;;;;5008949;28;20037;-60
2020/12/27 03:28:39;;;;;;;6.53;3.13;;;3.10;74.40;;;;;;5014601;28;20037;-60
2020/12/27 03:31:06;;;;;;;3.97;2.60;;;3.10;74.60;;;;;;5004845;28;20033;-60
2020/12/27 03:33:35;;;;;;;5.40;2.83;;;3.10;74.20;;;;;;5008344;28;20033;-60
2020/12/27 03:36:06;;;;;;;5.47;2.80;;;3.10;74.00;;;;;;4996712;28;20052;-60
2020/12/27 03:38:46;;;;;;;3.95;2.95;;;3.10;73.80;;;;;;5003704;28;20033;-60
2020/12/27 03:41:34;;;;;;;5.85;2.65;;;3.20;74.00;;;;;;5011515;28;20057;-60
2020/12/27 03:44:23;;;;;;;4.85;2.65;;;3.30;73.40;;;;;;5023352;28;20481;-60
2020/12/27 03:47:07;;;;;;;6.50;2.88;;;3.30;73.10;;;;;;5024661;28;20094;-60
2020/12/27 03:49:44;;;;;;;4.47;2.95;;;3.20;72.60;;;;;;5024267;28;20033;-63
2020/12/27 03:52:16;;;;;;;6.30;3.10;;;3.10;74.20;;;;;;5017928;28;20060;-59
2020/12/27 03:55:17;;;;;;;7.10;3.65;;;3.00;73.90;;;;;;5013526;28;20155;-60
2020/12/27 03:57:54;;;;;;;6.35;2.75;;;3.10;73.40;;;;;;5019916;28;20029;-60
2020/12/27 04:00:34;;;;;;;5.25;2.83;;;3.10;73.90;;;;;;5011981;28;20672;-62
2020/12/27 04:03:06;;;;;;;4.18;2.33;;;3.00;74.20;;;;;;5010403;28;20029;-60
2020/12/27 04:05:36;;;;;;;5.78;3.10;;;3.10;74.20;;;;;;5013299;28;20179;-60
2020/12/27 04:08:02;;;;;;;4.78;2.45;;;3.10;73.40;;;;;;5016538;28;20044;-60
2020/12/27 04:10:28;;;;;;;5.18;2.97;;;3.10;73.80;;;;;;5010379;28;20033;-60
2020/12/27 04:12:54;;;;;;;7.25;3.05;;;3.00;73.60;;;;;;5009509;28;20093;-60
2020/12/27 04:15:20;;;;;;;6.53;2.85;;;3.10;73.60;;;;;;5020780;28;20086;-60
2020/12/27 04:17:57;;;;;;;5.07;3.13;;;3.00;73.40;;;;;;5003460;28;20060;-60
2020/12/27 04:20:28;;;;;;;7.38;3.28;;;3.10;72.50;;;;;;5007294;28;20041;-60
2020/12/27 04:22:54;;;;;;;5.72;3.03;;;3.10;73.10;;;;;;5037868;28;20029;-60
2020/12/27 04:25:22;;;;;;;4.53;2.78;;;3.10;73.20;;;;;;5010173;28;20553;-60
2020/12/27 04:27:50;;;;;;;4.70;2.75;;;3.00;73.10;;;;;;5005872;28;20029;-60
2020/12/27 04:30:16;;;;;;;4.80;3.03;;;3.10;73.60;;;;;;5008994;28;20037;-62
2020/12/27 04:32:58;;;;;;;9.75;3.05;;;3.00;72.30;;;;;;5008425;28;20032;-60
2020/12/27 04:35:30;;;;;;;5.40;2.90;;;3.10;72.80;;;;;;5013694;28;20037;-60
2020/12/27 04:37:56;;;;;;;8.75;3.78;;;3.00;72.90;;;;;;5017110;28;20034;-63
2020/12/27 04:40:30;;;;;;;6.60;3.17;;;3.00;73.00;;;;;;5010770;28;20030;-60
2020/12/27 04:42:58;;;;;;;8.57;3.13;;;2.90;73.20;;;;;;5005523;28;20848;-59
2020/12/27 04:45:34;;;;;;;6.25;3.40;;;2.90;72.80;;;;;;5012345;28;20029;-60
2020/12/27 04:48:13;;;;;;;6.20;4.20;;;2.90;73.30;;;;;;5007299;28;20044;-60
2020/12/27 04:51:03;;;;;;;5.45;2.90;;;2.90;73.70;;;;;;5025011;28;20040;-60
2020/12/27 04:53:31;;;;;;;7.38;3.58;;;2.90;72.70;;;;;;5009343;28;20206;-60
2020/12/27 04:56:00;;;;;;;6.70;3.70;;;2.80;74.30;;;;;;5005714;28;20685;-60
2020/12/27 04:58:40;;;;;;;7.38;3.70;;;2.90;73.50;;;;;;5009278;28;20058;-60
2020/12/27 05:01:12;;;;;;;6.78;3.10;;;2.90;72.90;;;;;;5007976;28;20033;-60
2020/12/27 05:04:00;;;;;;;8.50;4.22;;;2.90;73.10;;;;;;5003747;28;20099;-59
2020/12/27 05:06:34;;;;;;;5.28;3.42;;;2.90;73.60;;;;;;5008054;28;20040;-60
2020/12/27 05:09:03;;;;;;;7.22;3.25;;;2.90;73.30;;;;;;5011756;28;20037;-60
2020/12/27 05:11:31;;;;;;;4.97;3.90;;;2.90;72.50;;;;;;5019694;28;20116;-60
2020/12/27 05:14:05;;;;;;;9.85;3.50;;;2.90;73.10;;;;;;5004887;28;20409;-60
2020/12/27 05:16:36;;;;;;;8.07;4.10;;;2.80;73.40;;;;;;5006454;28;20036;-60
2020/12/27 05:19:03;;;;;;;8.45;4.38;;;2.90;72.50;;;;;;5006202;28;20387;-61
2020/12/27 05:21:39;;;;;;;7.10;3.80;;;2.80;73.10;;;;;;5013088;28;20063;-60
2020/12/27 05:24:23;;;;;;;7.20;4.20;;;2.80;73.80;;;;;;5005850;28;20040;-60
2020/12/27 05:27:13;;;;;;;5.57;3.90;;;2.80;73.70;;;;;;5021764;28;20050;-60
2020/12/27 05:29:49;;;;;;;4.93;3.53;;;2.80;73.40;;;;;;5011761;28;20029;-60
2020/12/27 05:32:38;;;;;;;10.68;4.50;;;2.70;73.90;;;;;;5029783;28;20874;-60
2020/12/27 05:35:29;;;;;;;9.27;3.97;;;2.70;73.60;;;;;;5019210;28;20585;-62
2020/12/27 05:38:06;;;;;;;9.38;4.18;;;2.70;73.90;;;;;;4996570;28;20124;-60
2020/12/27 05:40:54;;;;;;;6.80;4.20;;;2.70;73.90;;;;;;5012881;28;20114;-60
2020/12/27 05:43:27;;;;;;;6.50;4.07;;;2.70;73.60;;;;;;5003296;28;20056;-63
2020/12/27 05:45:59;;;;;;;8.23;4.45;;;2.70;73.60;;;;;;5018972;28;20103;-60
2020/12/27 05:48:26;;;;;;;7.50;4.32;;;2.70;74.20;;;;;;5038395;28;20036;-59
2020/12/27 05:50:54;;;;;;;7.20;4.05;;;2.70;74.40;;;;;;5006499;28;20037;-60
2020/12/27 05:53:22;;;;;;;7.15;3.97;;;2.60;74.00;;;;;;5004143;28;20047;-60
2020/12/27 05:55:53;;;;;;;6.30;4.25;;;2.70;73.30;;;;;;5011870;28;20033;-62
2020/12/27 05:58:23;;;;;;;7.75;4.00;;;2.60;73.40;;;;;;5005325;28;20138;-60
2020/12/27 06:00:58;;;;;;;6.05;4.03;;;2.60;74.80;;;;;;5020729;28;20061;-61
2020/12/27 06:03:28;;;;;;;8.70;4.25;;;2.60;73.40;;;;;;5012366;28;20044;-62
2020/12/27 06:05:58;;;;;;;7.72;4.25;;;2.50;74.20;;;;;;5017388;28;20036;-62
2020/12/27 06:08:29;;;;;;;6.97;3.95;;;2.50;74.20;;;;;;5004841;28;20040;-62
2020/12/27 06:11:04;;;;;;;6.88;3.83;;;2.50;73.40;;;;;;5018562;28;20053;-62
2020/12/27 06:14:15;;;;;;;7.60;4.00;;;2.40;74.20;;;;;;5010071;28;20581;-63
2020/12/27 06:17:15;;;;;;;8.73;4.32;;;2.40;73.80;;;;;;5020429;28;20137;-62
2020/12/27 06:20:07;;;;;;;8.10;4.72;;;2.50;74.40;;;;;;5019958;28;20083;-62
2020/12/27 06:22:42;;;;;;;11.57;4.50;;;2.50;75.00;;;;;;5004062;28;20497;-62
2020/12/27 06:25:19;;;;;;;9.38;4.45;;;2.40;74.20;;;;;;5020058;28;20056;-63
2020/12/27 06:27:46;;;;;;;11.77;4.82;;;2.40;74.50;;;;;;5014246;28;20896;-62
2020/12/27 06:30:17;;;;;;;5.57;3.72;;;2.50;74.20;;;;;;5010566;28;20037;-60
2020/12/27 06:33:02;;;;;;;6.60;3.83;;;2.50;73.80;;;;;;5001222;28;20045;-60
2020/12/27 06:35:35;;;;;;;7.72;3.75;;;2.60;73.30;;;;;;5005998;28;20815;-60
2020/12/27 06:38:20;;;;;;;8.05;3.97;;;2.60;72.90;;;;;;5019299;28;20040;-62
2020/12/27 06:41:03;;;;;;;7.93;4.35;;;2.60;72.60;;;;;;5008514;28;20030;-62
2020/12/27 06:43:48;;;;;;;6.43;3.80;;;2.50;72.60;;;;;;5017907;28;20183;-62
2020/12/27 06:46:30;;;;;;;7.70;3.83;;;2.50;72.30;;;;;;5009777;28;20568;-63
2020/12/27 06:49:13;;;;;;;8.82;4.07;;;2.40;73.00;;;;;;5009461;28;20809;-62
2020/12/27 06:52:14;;;;;;;7.05;4.13;;;2.40;72.20;;;;;;5025212;28;20060;-63
2020/12/27 06:55:00;;;;;;;6.47;3.70;;;2.50;73.00;;;;;;5021338;28;20045;-63
2020/12/27 06:57:44;;;;;;;7.30;4.28;;;2.40;72.50;;;;;;5016101;28;20055;-64
2020/12/27 07:00:33;;;;;;;7.28;4.43;;;2.40;72.10;;;;;;5024364;28;20052;-62
2020/12/27 07:03:11;;;;;;;6.97;3.95;;;2.50;71.50;;;;;;5012127;28;20040;-61
2020/12/27 07:05:39;;;;;;;6.93;3.70;;;2.50;72.20;;;;;;5026502;28;20106;-62
2020/12/27 07:08:06;;;;;;;6.22;3.70;;;2.40;71.50;;;;;;5033841;28;20037;-63
2020/12/27 07:10:34;;;;;;;6.97;3.72;;;2.50;71.00;;;;;;5021754;28;20114;-63
2020/12/27 07:13:12;;;;;;;10.15;4.43;;;2.50;71.50;;;;;;5026037;28;20045;-63
2020/12/27 07:15:55;;;;;;;7.05;3.58;;;2.50;71.40;;;;;;5021148;28;20514;-63
2020/12/27 07:18:22;;;;;;;5.90;3.03;;;2.50;71.20;;;;;;5029774;28;20137;-62
2020/12/27 07:20:59;;;;;;;6.57;2.97;;;2.50;71.30;;;;;;5031536;28;20120;-60
2020/12/27 07:23:29;;;;;;;6.78;3.40;;;2.50;71.50;;;;;;5023189;28;20033;-61
2020/12/27 07:25:57;;;;;;;8.40;4.13;;;2.50;70.20;;;;;;5030511;28;20029;-61
2020/12/27 07:28:24;;;;;;;10.35;3.33;;;2.50;72.20;;;;;;5037407;28;20473;-62
2020/12/27 07:30:55;;;;;;;8.75;3.67;;;2.50;71.20;;;;;;5023834;28;20060;-62
2020/12/27 07:33:27;;;;;;;7.30;3.40;;;2.50;70.00;;;;;;5030298;28;20501;-62
2020/12/27 07:36:03;;;;;;;5.80;2.88;;;2.60;69.60;;;;;;5026901;28;20116;-66
2020/12/27 07:38:54;;;;;;;8.77;3.45;;;2.60;69.30;;;;;;5031010;28;20037;-62
2020/12/27 07:41:24;;;;;;;8.80;3.38;;;2.60;68.80;;;;;;5037802;28;20776;-62
2020/12/27 07:43:50;;;;;;;5.03;3.30;;;2.60;68.70;;;;;;5035813;28;20036;-62
2020/12/27 07:46:19;;;;;;;6.13;3.08;;;2.60;68.90;;;;;;5028435;28;20071;-60
2020/12/27 07:48:45;;;;;;;5.43;2.58;;;2.70;69.60;;;;;;5021517;28;20486;-61
2020/12/27 07:51:22;;;;;;;6.05;2.78;;;2.70;67.90;;;;;;5026000;28;20123;-60
2020/12/27 07:53:56;;;;;;;4.25;2.50;;;2.80;67.50;;;;;;5036520;28;20478;-62
2020/12/27 07:56:26;;;;;;;4.32;2.38;;;2.80;67.90;;;;;;5026416;28;20076;-62
2020/12/27 07:58:58;;;;;;;5.15;2.80;;;2.70;67.20;;;;;;5025060;28;20501;-63
2020/12/27 08:01:32;;;;;;;10.88;2.47;;;2.70;67.40;;;;;;5027323;28;20026;-62
2020/12/27 08:04:03;;;;;;;4.47;2.15;;;2.70;68.10;;;;;;5021646;28;20834;-61
2020/12/27 08:06:33;;;;;;;4.55;2.80;;;2.70;65.90;;;;;;5006767;28;20041;-62
2020/12/27 08:09:05;;;;;;;4.90;2.13;;;2.80;66.00;;;;;;5013967;28;20034;-62
2020/12/27 08:11:37;;;;;;;5.55;1.92;;;2.80;65.20;;;;;;5023733;28;20145;-59
2020/12/27 08:14:08;;;;;;;2.92;1.95;;;2.90;64.90;;;;;;5027895;28;20521;-62
2020/12/27 08:16:36;;;;;;;3.88;2.08;;;2.90;64.40;;;;;;5025541;28;20035;-64
2020/12/27 08:19:13;;;;;;;5.93;2.08;;;3.00;64.80;;;;;;5035011;28;20128;-62
2020/12/27 08:21:43;;;;;;;3.33;2.25;;;3.10;64.80;;;;;;5033069;28;20029;-60
2020/12/27 08:24:13;;;;;;;6.20;1.83;;;3.10;64.20;;;;;;5022612;28;20846;-61
2020/12/27 08:26:43;;;;;;;3.42;1.63;;;3.10;64.20;;;;;;5033585;28;20033;-62
2020/12/27 08:29:14;;;;;;;4.72;1.90;;;3.10;62.90;;;;;;5023116;28;20033;-61
2020/12/27 08:31:41;;;;;;;3.17;1.73;;;3.10;63.00;;;;;;5029380;28;20029;-62
2020/12/27 08:34:11;;;;;;;4.32;1.80;;;3.10;62.80;;;;;;5022440;28;20036;-62
2020/12/27 08:36:39;;;;;;;5.38;2.25;;;3.20;62.70;;;;;;5021922;28;20056;-62
2020/12/27 08:39:21;;;;;;;5.47;1.92;;;3.20;61.60;;;;;;5030280;28;20103;-62
2020/12/27 08:41:57;;;;;;;2.50;1.40;;;3.40;61.20;;;;;;5032671;28;20037;-62
2020/12/27 08:44:25;;;;;;;1.92;1.40;;;3.30;61.10;;;;;;5027134;28;20044;-67
2020/12/27 08:46:52;;;;;;;3.33;1.75;;;3.40;61.50;;;;;;5022314;28;20481;-62
2020/12/27 08:49:38;;;;;;;1.70;1.50;;;3.30;60.80;;;;;;5022925;28;20053;-62
2020/12/27 08:52:13;;;;;;;2.70;1.60;;;3.30;60.70;;;;;;5028245;28;20033;-62
2020/12/27 08:54:39;;;;;;;1.63;1.50;;;3.30;61.20;;;;;;5028957;28;20029;-62
2020/12/27 08:57:07;;;;;;;4.10;1.67;;;3.30;60.80;;;;;;5023751;28;20038;-61
2020/12/27 08:59:32;;;;;;;3.45;1.50;;;3.30;60.40;;;;;;5029607;28;20124;-60
2020/12/27 09:02:10;;;;;;;3.00;1.55;;;3.40;59.40;;;;;;5024668;28;20119;-62
2020/12/27 09:04:36;;;;;;;2.35;1.40;;;3.40;59.70;;;;;;5023263;28;20509;-62
2020/12/27 09:07:03;;;;;;;5.75;2.10;;;3.50;59.90;;;;;;5028441;28;20111;-62
2020/12/27 09:09:28;;;;;;;3.72;1.40;;;3.60;58.70;;;;;;5023897;28;20037;-60
2020/12/27 09:11:54;;;;;;;3.80;1.45;;;3.60;58.90;;;;;;5021725;28;20026;-59
2020/12/27 09:14:34;;;;;;;3.03;1.48;;;3.60;59.00;;;;;;5026087;28;20032;-60
2020/12/27 09:17:05;;;;;;;2.85;1.70;;;3.70;59.10;;;;;;5029617;28;20037;-60
2020/12/27 09:19:34;;;;;;;2.03;1.42;;;4.00;58.20;;;;;;5013582;28;20501;-59
2020/12/27 09:22:03;;;;;;;2.05;1.35;;;4.10;57.20;;;;;;5028087;28;20454;-60
2020/12/27 09:24:29;;;;;;;3.15;1.55;;;4.30;56.00;;;;;;5034118;28;20722;-60
2020/12/27 09:27:05;;;;;;;3.67;1.77;;;4.30;55.50;;;;;;5019530;28;20026;-57
2020/12/27 09:29:30;;;;;;;2.63;1.60;;;4.20;56.00;;;;;;5022812;28;20041;-60
2020/12/27 09:32:07;;;;;;;4.50;1.90;;;4.30;55.00;;;;;;5028177;28;20044;-62
2020/12/27 09:34:33;;;;;;;3.10;1.65;;;4.60;53.80;;;;;;5025338;28;20049;-59
2020/12/27 09:37:19;;;;;;;2.00;1.45;;;4.90;54.50;;;;;;5022771;28;20028;-60
2020/12/27 09:39:55;;;;;;;2.92;1.40;;;4.80;53.20;;;;;;5028520;28;20041;-61
2020/12/27 09:42:26;;;;;;;3.15;2.13;;;5.00;53.30;;;;;;5031256;28;20033;-60
2020/12/27 09:44:53;;;;;;;2.28;1.73;;;5.20;54.10;;;;;;5031574;28;20041;-60
2020/12/27 09:47:22;;;;;;;3.92;1.85;;;5.00;53.60;;;;;;5036892;28;20041;-61
2020/12/27 09:50:07;;;;;;;3.58;2.00;;;4.70;53.40;;;;;;5034992;28;20025;-60
2020/12/27 09:52:46;;;;;;;4.50;1.80;;;4.40;55.30;;;;;;5023730;28;20037;-61
2020/12/27 09:55:12;;;;;;;3.42;1.85;;;4.40;55.10;;;;;;5028797;28;20037;-61
2020/12/27 09:57:38;;;;;;;3.92;1.70;;;4.30;54.00;;;;;;5028286;28;20540;-61
2020/12/27 10:00:05;;;;;;;4.40;2.15;;;4.10;55.30;;;;;;5022645;28;20044;-61
2020/12/27 10:02:30;;;;;;;4.82;2.10;;;4.10;56.10;;;;;;5020023;28;20125;-61
2020/12/27 10:04:56;;;;;;;3.72;2.00;;;4.10;58.10;;;;;;5023729;28;20102;-61
2020/12/27 10:07:22;;;;;;;4.75;1.98;;;4.10;56.00;;;;;;5029004;28;20056;-60
2020/12/27 10:09:47;;;;;;;5.68;2.00;;;4.10;56.00;;;;;;5030434;28;20041;-60
2020/12/27 10:12:14;;;;;;;4.82;1.98;;;4.10;55.70;;;;;;5035452;28;20033;-61
2020/12/27 10:14:39;;;;;;;3.88;1.75;;;4.00;57.10;;;;;;5022399;28;20781;-63
2020/12/27 10:17:06;;;;;;;4.10;1.75;;;4.00;56.30;;;;;;5025352;28;20112;-65
2020/12/27 10:19:32;;;;;;;3.92;2.00;;;4.00;56.00;;;;;;5022656;28;20529;-63
2020/12/27 10:21:58;;;;;;;2.75;1.55;;;3.80;56.80;;;;;;5029547;28;20033;-62
2020/12/27 10:24:26;;;;;;;3.72;1.77;;;3.90;57.70;;;;;;5027431;28;20396;-60
2020/12/27 10:26:53;;;;;;;2.28;1.90;;;3.90;56.80;;;;;;5024589;28;20037;-60
2020/12/27 10:29:19;;;;;;;3.08;1.60;;;3.90;56.80;;;;;;5026779;28;20420;-61
2020/12/27 10:31:49;;;;;;;3.33;2.03;;;4.00;56.40;;;;;;5030338;28;20029;-63
2020/12/27 10:34:15;;;;;;;3.15;1.92;;;4.00;57.80;;;;;;5031003;28;20037;-61
2020/12/27 10:36:49;;;;;;;2.58;1.77;;;4.20;55.60;;;;;;5024947;28;20540;-60
2020/12/27 10:39:16;;;;;;;3.53;2.00;;;4.20;54.60;;;;;;5030784;28;20036;-61
2020/12/27 10:41:43;;;;;;;3.92;2.00;;;4.00;56.40;;;;;;5022079;28;20028;-68
2020/12/27 10:44:09;;;;;;;3.33;1.90;;;3.90;56.60;;;;;;5011178;28;20568;-61
2020/12/27 10:46:35;;;;;;;8.13;2.10;;;3.90;56.70;;;;;;5014703;28;20040;-61
2020/12/27 10:49:01;;;;;;;2.30;1.63;;;3.80;57.00;;;;;;5026920;28;20890;-62
2020/12/27 10:51:27;;;;;;;3.10;1.88;;;3.90;56.40;;;;;;5023436;28;20029;-63
2020/12/27 10:53:52;;;;;;;3.97;2.00;;;3.90;56.10;;;;;;5031290;28;20528;-61
2020/12/27 10:56:18;;;;;;;4.97;2.28;;;3.90;56.30;;;;;;5029756;28;20029;-61
2020/12/27 10:58:44;;;;;;;2.97;1.90;;;3.90;56.10;;;;;;5032705;28;20041;-63
2020/12/27 11:01:09;;;;;;;3.00;1.85;;;3.80;55.80;;;;;;5030877;28;20036;-63
2020/12/27 11:03:35;;;;;;;3.92;1.85;;;3.70;56.40;;;;;;5025313;28;20037;-63
2020/12/27 11:06:01;;;;;;;5.97;1.77;;;3.70;56.50;;;;;;5023594;28;20030;-61
2020/12/27 11:08:26;;;;;;;3.05;1.75;;;3.70;55.80;;;;;;5024285;28;20026;-64
2020/12/27 11:10:52;;;;;;;4.80;1.90;;;3.80;55.80;;;;;;5028885;28;20034;-61
2020/12/27 11:13:18;;;;;;;2.13;1.58;;;3.80;56.10;;;;;;5025406;28;20033;-61
2020/12/27 11:15:44;;;;;;;2.85;1.90;;;3.80;56.40;;;;;;5026422;28;20033;-63
2020/12/27 11:18:09;;;;;;;2.85;1.73;;;3.80;55.10;;;;;;5024802;28;20083;-63
2020/12/27 11:20:35;;;;;;;2.47;1.92;;;3.90;55.40;;;;;;5032165;28;20037;-62
2020/12/27 11:23:01;;;;;;;3.15;1.55;;;3.90;56.10;;;;;;5033559;28;20029;-62
2020/12/27 11:25:27;;;;;;;2.95;1.85;;;3.80;55.10;;;;;;5024566;28;20544;-63
2020/12/27 11:27:53;;;;;;;3.92;2.13;;;3.90;55.80;;;;;;5032388;28;20048;-61
2020/12/27 11:30:19;;;;;;;5.38;2.13;;;4.00;54.40;;;;;;5033774;28;20068;-63
2020/12/27 11:32:45;;;;;;;2.83;1.63;;;3.90;54.90;;;;;;5028067;28;20078;-66
2020/12/27 11:35:11;;;;;;;3.40;1.75;;;3.90;55.60;;;;;;5033908;28;20058;-63
2020/12/27 11:37:37;;;;;;;4.07;2.03;;;4.00;55.30;;;;;;5023185;28;20025;-63
2020/12/27 11:40:04;;;;;;;2.60;1.65;;;3.90;54.50;;;;;;5031737;28;20036;-63
2020/12/27 11:42:30;;;;;;;2.97;1.90;;;4.00;53.70;;;;;;5039918;28;20495;-64
2020/12/27 11:44:55;;;;;;;2.88;1.60;;;4.00;54.30;;;;;;5027985;28;20771;-62
2020/12/27 11:47:21;;;;;;;3.95;1.90;;;4.00;53.60;;;;;;5027630;28;20095;-63
2020/12/27 11:49:47;;;;;;;4.75;1.85;;;4.10;53.80;;;;;;5029449;28;20489;-62
2020/12/27 11:52:13;;;;;;;4.10;1.75;;;4.00;53.40;;;;;;5031613;28;20037;-63
2020/12/27 11:54:39;;;;;;;1.45;1.35;;;3.90;54.30;;;;;;5026120;28;20057;-63
2020/12/27 11:57:04;;;;;;;3.90;1.63;;;3.90;53.90;;;;;;5020697;28;20043;-63
2020/12/27 11:59:30;;;;;;;4.38;1.48;;;3.90;55.10;;;;;;5029930;28;20493;-62
2020/12/27 12:01:56;;;;;;;2.35;1.52;;;3.90;54.20;;;;;;5025619;28;20029;-63
2020/12/27 12:04:22;;;;;;;2.83;1.60;;;3.90;53.70;;;;;;5024608;28;20033;-63
2020/12/27 12:06:47;;;;;;;4.38;2.10;;;3.90;54.10;;;;;;5033025;28;20032;-63
2020/12/27 12:09:13;;;;;;;4.03;1.42;;;3.80;54.60;;;;;;5026240;28;20143;-63
2020/12/27 12:11:41;;;;;;;1.77;1.27;;;3.90;52.10;;;;;;5024899;28;20033;-64
2020/12/27 12:14:07;;;;;;;2.33;1.55;;;4.00;52.80;;;;;;5029195;28;20061;-64
2020/12/27 12:16:34;;;;;;;1.80;1.25;;;4.00;52.60;;;;;;5027922;28;20072;-60
2020/12/27 12:19:01;;;;;;;1.73;1.38;;;4.00;53.80;;;;;;5028775;28;20029;-63
2020/12/27 12:21:27;;;;;;;2.03;1.30;;;4.00;53.00;;;;;;5024327;28;20551;-61
2020/12/27 12:23:54;;;;;;;1.75;1.25;;;4.10;52.90;;;;;;5034745;28;20048;-61
2020/12/27 12:26:24;;;;;;;1.63;1.38;;;4.10;52.40;;;;;;5028951;28;20128;-63
2020/12/27 12:28:51;;;;;;;2.28;1.42;;;4.10;51.30;;;;;;5030010;28;20074;-63
2020/12/27 12:31:17;;;;;;;2.65;1.58;;;4.10;52.00;;;;;;5026487;28;20442;-63
2020/12/27 12:33:44;;;;;;;3.35;2.33;;;4.10;51.90;;;;;;5026867;28;20461;-69
2020/12/27 12:36:21;;;;;;;3.00;1.58;;;4.10;51.50;;;;;;5008817;28;20675;-63
2020/12/27 12:38:48;;;;;;;3.00;1.63;;;4.00;52.50;;;;;;5021592;28;20033;-64
2020/12/27 12:41:17;;;;;;;2.42;1.35;;;4.00;52.00;;;;;;5028706;28;20033;-70
2020/12/27 12:43:45;;;;;;;3.55;1.50;;;4.00;51.60;;;;;;5027827;28;20041;-64
2020/12/27 12:46:12;;;;;;;1.90;1.42;;;4.10;53.10;;;;;;5028112;28;20041;-63
2020/12/27 12:48:38;;;;;;;3.75;1.75;;;4.10;52.90;;;;;;5033104;28;20818;-62
2020/12/27 12:51:05;;;;;;;2.10;1.50;;;4.10;53.40;;;;;;5033172;28;20041;-61
2020/12/27 12:53:31;;;;;;;2.03;1.35;;;4.10;51.50;;;;;;5028302;28;20025;-61
2020/12/27 12:55:57;;;;;;;4.07;1.60;;;4.10;51.20;;;;;;5020025;28;20508;-63
2020/12/27 12:58:22;;;;;;;4.30;1.55;;;4.00;52.20;;;;;;5013542;28;20037;-63
2020/12/27 13:00:48;;;;;;;;;;;4.10;51.20;;;;;;5025157;28;20033;-63
2020/12/27 13:03:14;;;;;;;2.53;1.20;;;4.00;51.50;;;;;;5032587;28;19919;-63
2020/12/27 13:05:40;;;;;;;2.13;1.33;;;4.00;52.30;;;;;;5034306;28;20029;-63
2020/12/27 13:08:05;;;;;;;2.78;1.40;;;4.00;53.00;;;;;;5033598;28;20116;-63
2020/12/27 13:10:32;;;;;;;4.15;1.45;;;4.00;53.10;;;;;;5029879;28;20104;-62
2020/12/27 13:12:58;;;;;;;1.70;1.13;;;4.00;53.50;;;;;;5031388;28;20037;-64
2020/12/27 13:15:24;;;;;;;2.85;1.25;;;3.90;52.90;;;;;;5028248;28;20045;-64
2020/12/27 13:17:49;;;;;;;2.20;1.42;;;3.90;53.70;;;;;;5024363;28;20068;-63
2020/12/27 13:20:15;;;;;;;1.70;1.25;;;3.90;53.00;;;;;;5021378;28;20025;-64
2020/12/27 13:22:41;;;;;;;2.25;1.60;;;3.90;52.90;;;;;;5023298;28;20029;-64